MSC Opera — H3FV — position and weather

sailwx.info

Track history (hours):
 
Tides and Currents Weather Stations Pressure Air Temp Water Temp Dewpoint Dewpoint Depression Visibility Wind Speed Wind Dir Waves Ship Positions

MSC Opera

Operator: Mediterranean Shipping Company

Last reported at 2018-Nov-06 10:43 UTC. Time now 2018-Nov-18 16:27 UTC.
Position N 37°19' W 000°58'.
Warning: this ship's position is 12 days out of date.

Length 275 m; draft 6.9 m.

Type: Ship. MMSI: 357627000.

Date/timePositionNaut miles runAvg speedWind from/ knotsBaromVisibWave heightAir tempDewpointWater temp
2018-Nov-06 10:43N 37°19' W 000°58'311.4
2018-Nov-06 10:27N 37°20' W 000°55'511.4
2018-Nov-06 10:02N 37°23' W 000°50'011.6
2018-Nov-06 09:59N 37°23' W 000°49'611.8
2018-Nov-06 09:31N 37°27' W 000°44'713.4
2018-Nov-06 09:01N 37°31' W 000°38'013.7
2018-Nov-06 08:59N 37°32' W 000°37'613.5
2018-Nov-06 08:31N 37°36' W 000°32'613.4
2018-Nov-06 08:03N 37°41' W 000°28'113.4
2018-Nov-06 08:01N 37°42' W 000°27'713.2
2018-Nov-06 07:29N 37°47' W 000°22'613.4
2018-Nov-06 07:01N 37°53' W 000°17'113.4
2018-Nov-06 06:57N 37°53' W 000°17'613.3
2018-Nov-06 06:31N 37°58' W 000°13'8810.4
2018-Nov-05 22:02N 39°26' W 000°19'0 8.1
2018-Nov-05 22:00N 39°27' W 000°19'1 1.4
2018-Nov-05 21:25N 39°27' W 000°19'0 0.0
2018-Nov-05 20:12N 39°27' W 000°19'0 0.0
2018-Nov-05 20:00N 39°27' W 000°19'0 0.0
2018-Nov-05 19:30N 39°27' W 000°19'0 0.0
2018-Nov-05 18:54N 39°27' W 000°19'0 0.0
2018-Nov-05 18:24N 39°27' W 000°19'0 0.0
2018-Nov-05 17:47N 39°27' W 000°19'0 0.0
2018-Nov-05 17:29N 39°27' W 000°19'0 0.0
2018-Nov-05 16:53N 39°27' W 000°19'0 0.0
2018-Nov-05 16:26N 39°27' W 000°19'0 0.0
2018-Nov-05 15:46N 39°27' W 000°19'0 0.0
2018-Nov-05 15:28N 39°27' W 000°19'0 0.0
2018-Nov-05 14:55N 39°27' W 000°19'0 0.0
2018-Nov-05 14:28N 39°27' W 000°19'0 0.0
2018-Nov-05 11:38N 39°27' W 000°19'0 1.6
2018-Nov-05 11:30N 39°27' W 000°19'4 7.2
2018-Nov-05 10:54N 39°25' W 000°14'32917.5
2018-Nov-04 16:07N 43°10' E 005°04'119.5
2018-Nov-04 16:03N 43°11' E 005°05'118.9
2018-Nov-04 16:00N 43°12' E 005°06'1217.7
2018-Nov-04 15:18N 43°21' E 005°18'1 0.1
2018-Nov-04 06:41N 43°21' E 005°19'1 5.1
2018-Nov-04 06:30N 43°21' E 005°18'3 5.4
2018-Nov-04 06:01N 43°19' E 005°17'0 5.4
2018-Nov-04 05:57N 43°18' E 005°16'510.7
2018-Nov-04 05:29N 43°13' E 005°17'6312.8
2018-Nov-04 00:34N 43°03' E 006°42'217.9
2018-Nov-04 00:28N 43°04' E 006°44'717.8
2018-Nov-04 00:03N 43°08' E 006°53'117.2
2018-Nov-04 00:01N 43°09' E 006°54'917.0
2018-Nov-03 23:31N 43°14' E 007°03'816.9
2018-Nov-03 23:03N 43°17' E 007°13'116.8
2018-Nov-03 23:00N 43°17' E 007°14'816.7
2018-Nov-03 22:31N 43°21' E 007°24'3517.3
2018-Nov-03 20:31N 43°39' E 008°05'817.1
2018-Nov-03 20:03N 43°43' E 008°14'117.6
2018-Nov-03 20:00N 43°43' E 008°15'816.8
2018-Nov-03 19:31N 43°48' E 008°24'716.6
2018-Nov-03 19:04N 43°54' E 008°31'116.5
2018-Nov-03 19:01N 43°55' E 008°31'816.1
2018-Nov-03 18:31N 44°01' E 008°38'716.3
2018-Nov-03 18:04N 44°07' E 008°44'116.5
2018-Nov-03 18:00N 44°08' E 008°45'816.5
2018-Nov-03 17:31N 44°14' E 008°52'715.9
2018-Nov-03 17:04N 44°20' E 008°57'115.2
2018-Nov-03 17:01N 44°21' E 008°57'4 7.1
2018-Nov-03 16:28N 44°25' E 008°55'0 0.0
2018-Nov-03 16:03N 44°25' E 008°55'0 0.0
2018-Nov-03 16:00N 44°25' E 008°55'0 0.0
2018-Nov-03 15:27N 44°25' E 008°55'0 0.0
2018-Nov-03 15:03N 44°25' E 008°55'0 0.0
2018-Nov-03 15:00N 44°25' E 008°55'0 0.0
2018-Nov-03 14:30N 44°25' E 008°55'0 0.0
2018-Nov-03 14:02N 44°25' E 008°55'0 0.0
2018-Nov-03 13:59N 44°25' E 008°55'0 0.0
2018-Nov-03 13:26N 44°25' E 008°55'0 0.0
2018-Nov-03 12:59N 44°25' E 008°55'0 0.0
2018-Nov-03 12:29N 44°25' E 008°55'0 0.0
2018-Nov-03 12:02N 44°25' E 008°55'0 0.0
2018-Nov-03 11:59N 44°25' E 008°55'0 0.0
2018-Nov-03 11:28N 44°25' E 008°55'0 0.0
2018-Nov-03 11:01N 44°25' E 008°55'0 0.0
2018-Nov-03 10:58N 44°25' E 008°55'0 0.0
2018-Nov-03 10:29N 44°25' E 008°55'0 0.0
2018-Nov-03 10:02N 44°25' E 008°55'0 0.0
2018-Nov-03 09:59N 44°25' E 008°55'0 0.0
2018-Nov-03 09:29N 44°25' E 008°55'0 0.0
2018-Nov-03 09:02N 44°25' E 008°55'0 0.0
2018-Nov-03 08:59N 44°25' E 008°55'0 0.0
2018-Nov-03 08:28N 44°25' E 008°55'0 0.0
2018-Nov-03 08:01N 44°25' E 008°55'0 0.0
2018-Nov-03 07:58N 44°25' E 008°55'1 1.6
2018-Nov-03 07:30N 44°24' E 008°55'2 4.7
2018-Nov-03 07:03N 44°23' E 008°57'0 7.1
2018-Nov-03 07:00N 44°22' E 008°58'3 6.3
2018-Nov-03 06:30N 44°19' E 008°59'716.0
2018-Nov-03 06:03N 44°13' E 009°05'117.9
2018-Nov-03 06:00N 44°13' E 009°06'917.7
2018-Nov-03 05:30N 44°05' E 009°11'818.1
2018-Nov-03 05:03N 43°58' E 009°17'118.0
2018-Nov-03 05:00N 43°57' E 009°18'918.2
2018-Nov-03 04:30N 43°49' E 009°24'818.1
2018-Nov-03 04:03N 43°42' E 009°30'118.1
2018-Nov-03 04:00N 43°41' E 009°30'917.8
2018-Nov-03 03:30N 43°34' E 009°37'818.1
2018-Nov-03 03:03N 43°27' E 009°42'118.1
2018-Nov-03 03:00N 43°26' E 009°43'918.2
2018-Nov-03 02:30N 43°18' E 009°49'818.0
2018-Nov-03 02:03N 43°11' E 009°55'118.1
2018-Nov-03 02:00N 43°10' E 009°56'917.7
2018-Nov-03 01:30N 43°02' E 009°59'2217.5
2018-Nov-03 00:14N 42°40' E 010°08'618.2
2018-Nov-02 23:55N 42°37' E 010°14'817.6
2018-Nov-02 23:29N 42°32' E 010°22'817.0
2018-Nov-02 23:00N 42°27' E 010°31'17019.5
2018-Nov-02 14:19N 40°48' E 013°35'720.5
2018-Nov-02 13:58N 40°44' E 013°43'1020.0
2018-Nov-02 13:30N 40°39' E 013°54'818.9
2018-Nov-02 13:03N 40°40' E 014°04'118.9
2018-Nov-02 13:00N 40°41' E 014°05'918.9
2018-Nov-02 12:30N 40°47' E 014°14'3 6.9
2018-Nov-02 12:01N 40°50' E 014°16'0 0.0
2018-Nov-02 11:58N 40°50' E 014°16'0 0.0
2018-Nov-02 11:28N 40°50' E 014°16'0 0.0
2018-Nov-02 11:01N 40°50' E 014°16'0 0.0
2018-Nov-02 10:58N 40°50' E 014°16'0 0.0
2018-Nov-02 10:30N 40°50' E 014°16'0 0.0
2018-Nov-02 10:03N 40°50' E 014°16'0 0.0
2018-Nov-02 09:57N 40°50' E 014°16'0 0.0
2018-Nov-02 09:30N 40°50' E 014°16'0 0.0
2018-Nov-02 09:03N 40°50' E 014°16'0 0.0
2018-Nov-02 08:57N 40°50' E 014°16'0 0.0
2018-Nov-02 08:29N 40°50' E 014°16'0 0.0
2018-Nov-02 08:02N 40°50' E 014°16'0 0.0
2018-Nov-02 07:59N 40°50' E 014°16'0 0.0
2018-Nov-02 07:29N 40°50' E 014°16'0 0.0
2018-Nov-02 07:02N 40°50' E 014°16'0 0.0
2018-Nov-02 06:59N 40°50' E 014°16'0 0.0
2018-Nov-02 06:26N 40°50' E 014°16'0 0.0
2018-Nov-02 06:04N 40°50' E 014°16'0 0.0
2018-Nov-02 06:00N 40°50' E 014°16'0 0.0
2018-Nov-02 05:31N 40°50' E 014°16'2 3.5
2018-Nov-02 05:04N 40°49' E 014°17'0 8.6
2018-Nov-02 05:01N 40°49' E 014°17'611.8
2018-Nov-02 04:31N 40°43' E 014°14'511.9
2018-Nov-02 04:04N 40°38' E 014°11'112.5
2018-Nov-02 04:01N 40°38' E 014°11'811.9
2018-Nov-02 03:22N 40°30' E 014°11'414.1
2018-Nov-02 03:03N 40°26' E 014°14'114.2
2018-Nov-02 03:00N 40°26' E 014°14'714.2
2018-Nov-02 02:30N 40°19' E 014°18'714.5
2018-Nov-02 02:03N 40°14' E 014°22'114.6
2018-Nov-02 02:00N 40°13' E 014°23'914.5
2018-Nov-02 01:25N 40°05' E 014°28'8714.9
2018-Nov-01 19:33N 38°48' E 015°22'216.3
2018-Nov-01 19:27N 38°47' E 015°23'716.2
2018-Nov-01 19:02N 38°41' E 015°27'115.8
2018-Nov-01 19:00N 38°40' E 015°27'916.0
2018-Nov-01 18:25N 38°32' E 015°33'616.2
2018-Nov-01 18:03N 38°27' E 015°36'116.1
2018-Nov-01 17:59N 38°26' E 015°37'816.1
2018-Nov-01 17:30N 38°19' E 015°41'512.0
2018-Nov-01 17:03N 38°14' E 015°38'113.3
2018-Nov-01 17:00N 38°14' E 015°37'4 0.4
2018-Nov-01 07:11N 38°12' E 015°33'0 1.0
2018-Nov-01 07:03N 38°12' E 015°34'0 1.6
2018-Nov-01 07:00N 38°12' E 015°34'3 5.8
2018-Nov-01 06:30N 38°10' E 015°36'510.9
2018-Nov-01 06:03N 38°05' E 015°35'1 9.6
2018-Nov-01 05:59N 38°04' E 015°35'510.4
2018-Nov-01 05:30N 37°59' E 015°35'711.4
2018-Nov-01 04:51N 37°52' E 015°34'711.4
2018-Nov-01 04:14N 37°45' E 015°34'311.5
2018-Nov-01 04:01N 37°42' E 015°33'011.6
2018-Nov-01 04:00N 37°42' E 015°33'711.8
2018-Nov-01 03:27N 37°36' E 015°33'  
2018-Oct-29 15:27N 39°05' E 002°59'717.9
2018-Oct-29 15:03N 39°08' E 002°50'118.3
2018-Oct-29 14:59N 39°09' E 002°49'919.0
2018-Oct-29 14:30N 39°17' E 002°43'919.2
2018-Oct-29 14:00N 39°26' E 002°39'714.0
2018-Oct-29 13:30N 39°33' E 002°38'0 0.1
2018-Oct-29 13:00N 39°33' E 002°38'0 0.0
2018-Oct-29 12:30N 39°33' E 002°38'0 0.0
2018-Oct-29 12:03N 39°33' E 002°38'0 0.0
2018-Oct-29 12:00N 39°33' E 002°38'0 0.0
2018-Oct-29 11:30N 39°33' E 002°38'0 0.0
2018-Oct-29 11:02N 39°33' E 002°38'0 0.0
2018-Oct-29 10:59N 39°33' E 002°38'0 0.0
2018-Oct-29 10:29N 39°33' E 002°38'0 0.0
2018-Oct-29 10:02N 39°33' E 002°38'0 0.0
2018-Oct-29 09:59N 39°33' E 002°38'0 0.0
2018-Oct-29 09:29N 39°33' E 002°38'0 0.0
2018-Oct-29 09:02N 39°33' E 002°38'0 0.0
2018-Oct-29 08:56N 39°33' E 002°38'0 0.0
2018-Oct-29 08:28N 39°33' E 002°38'0 0.2
2018-Oct-29 08:03N 39°33' E 002°38'0 1.6
2018-Oct-29 08:00N 39°33' E 002°38'3 6.6
2018-Oct-29 07:30N 39°30' E 002°37'614.0
2018-Oct-29 07:03N 39°26' E 002°31'115.3
2018-Oct-29 07:00N 39°26' E 002°30'4313.9
2018-Oct-29 03:53N 40°09' E 002°29'817.8
2018-Oct-29 03:26N 40°17' E 002°32'21217.9
2018-Oct-28 15:35N 43°14' E 005°09'218.8
2018-Oct-28 15:29N 43°15' E 005°11'817.6
2018-Oct-28 15:03N 43°20' E 005°18'0 7.6
2018-Oct-28 15:00N 43°21' E 005°18'1 0.1
2018-Oct-28 06:26N 43°21' E 005°20'3 8.8
2018-Oct-28 06:03N 43°19' E 005°16'0 7.8
2018-Oct-28 05:59N 43°18' E 005°16'612.7
2018-Oct-28 05:30N 43°12' E 005°17'6312.3
2018-Oct-28 00:22N 43°04' E 006°43'413.2
2018-Oct-28 00:03N 43°06' E 006°48'113.4
2018-Oct-28 00:00N 43°06' E 006°49'713.6
2018-Oct-27 23:30N 43°10' E 006°57'613.3
2018-Oct-27 23:03N 43°13' E 007°04'113.3
2018-Oct-27 23:00N 43°13' E 007°05'713.5
2018-Oct-27 22:30N 43°16' E 007°13'614.1
2018-Oct-27 22:03N 43°20' E 007°20'114.8
2018-Oct-27 22:00N 43°20' E 007°21'714.7
2018-Oct-27 21:31N 43°24' E 007°30'614.3
2018-Oct-27 21:04N 43°27' E 007°37'114.2
2018-Oct-27 21:01N 43°27' E 007°38'816.4
2018-Oct-27 20:31N 43°31' E 007°48'817.5
2018-Oct-27 20:03N 43°35' E 007°57'116.8
2018-Oct-27 20:00N 43°36' E 007°58'917.5
2018-Oct-27 19:30N 43°40' E 008°09'917.5
2018-Oct-27 18:58N 43°46' E 008°20'817.4
2018-Oct-27 18:31N 43°52' E 008°27'817.0
2018-Oct-27 18:03N 43°58' E 008°34'116.9
2018-Oct-27 18:01N 43°58' E 008°34'816.7
2018-Oct-27 17:31N 44°05' E 008°41'716.4
2018-Oct-27 17:03N 44°11' E 008°48'116.2
2018-Oct-27 17:01N 44°11' E 008°48'816.3
2018-Oct-27 16:31N 44°18' E 008°55'612.7
2018-Oct-27 16:03N 44°24' E 008°56'0 9.5
2018-Oct-27 16:01N 44°24' E 008°55'1 1.9
2018-Oct-27 15:29N 44°25' E 008°55'0 0.0
2018-Oct-27 14:59N 44°25' E 008°55'0 0.0
2018-Oct-27 14:02N 44°25' E 008°55'0 0.0
2018-Oct-27 13:59N 44°25' E 008°55'0 0.0
2018-Oct-27 13:28N 44°25' E 008°55'0 0.0
2018-Oct-27 12:58N 44°25' E 008°55'0 0.0
2018-Oct-27 12:28N 44°25' E 008°55'0 0.0
2018-Oct-27 12:01N 44°25' E 008°55'0 0.0
2018-Oct-27 11:58N 44°25' E 008°55'0 0.0
2018-Oct-27 11:28N 44°25' E 008°55'0 0.0
2018-Oct-27 11:03N 44°25' E 008°55'0 0.0
2018-Oct-27 11:00N 44°25' E 008°55'  
Track history (hours):
 
Tides and Currents Weather Stations Pressure Air Temp Water Temp Dewpoint Dewpoint Depression Visibility Wind Speed Wind Dir Waves Ship Positions

MSC Opera

Operator: Mediterranean Shipping Company

Last reported at 2018-Nov-06 10:43 UTC. Time now 2018-Nov-18 16:27 UTC.
Position N 37°19' W 000°58'.
Warning: this ship's position is 12 days out of date.

Length 275 m; draft 6.9 m.

Type: Ship. MMSI: 357627000.

Date/timePositionNaut miles runAvg speedWind from/ knotsBaromVisibWave heightAir tempDewpointWater temp
2018-Nov-06 10:43N 37°19' W 000°58'311.4
2018-Nov-06 10:27N 37°20' W 000°55'511.4
2018-Nov-06 10:02N 37°23' W 000°50'011.6
2018-Nov-06 09:59N 37°23' W 000°49'611.8
2018-Nov-06 09:31N 37°27' W 000°44'713.4
2018-Nov-06 09:01N 37°31' W 000°38'013.7
2018-Nov-06 08:59N 37°32' W 000°37'613.5
2018-Nov-06 08:31N 37°36' W 000°32'613.4
2018-Nov-06 08:03N 37°41' W 000°28'113.4
2018-Nov-06 08:01N 37°42' W 000°27'713.2
2018-Nov-06 07:29N 37°47' W 000°22'613.4
2018-Nov-06 07:01N 37°53' W 000°17'113.4
2018-Nov-06 06:57N 37°53' W 000°17'613.3
2018-Nov-06 06:31N 37°58' W 000°13'8810.4
2018-Nov-05 22:02N 39°26' W 000°19'0 8.1
2018-Nov-05 22:00N 39°27' W 000°19'1 1.4
2018-Nov-05 21:25N 39°27' W 000°19'0 0.0
2018-Nov-05 20:12N 39°27' W 000°19'0 0.0
2018-Nov-05 20:00N 39°27' W 000°19'0 0.0
2018-Nov-05 19:30N 39°27' W 000°19'0 0.0
2018-Nov-05 18:54N 39°27' W 000°19'0 0.0
2018-Nov-05 18:24N 39°27' W 000°19'0 0.0
2018-Nov-05 17:47N 39°27' W 000°19'0 0.0
2018-Nov-05 17:29N 39°27' W 000°19'0 0.0
2018-Nov-05 16:53N 39°27' W 000°19'0 0.0
2018-Nov-05 16:26N 39°27' W 000°19'0 0.0
2018-Nov-05 15:46N 39°27' W 000°19'0 0.0
2018-Nov-05 15:28N 39°27' W 000°19'0 0.0
2018-Nov-05 14:55N 39°27' W 000°19'0 0.0
2018-Nov-05 14:28N 39°27' W 000°19'0 0.0
2018-Nov-05 11:38N 39°27' W 000°19'0 1.6
2018-Nov-05 11:30N 39°27' W 000°19'4 7.2
2018-Nov-05 10:54N 39°25' W 000°14'32917.5
2018-Nov-04 16:07N 43°10' E 005°04'119.5
2018-Nov-04 16:03N 43°11' E 005°05'118.9
2018-Nov-04 16:00N 43°12' E 005°06'1217.7
2018-Nov-04 15:18N 43°21' E 005°18'1 0.1
2018-Nov-04 06:41N 43°21' E 005°19'1 5.1
2018-Nov-04 06:30N 43°21' E 005°18'3 5.4
2018-Nov-04 06:01N 43°19' E 005°17'0 5.4
2018-Nov-04 05:57N 43°18' E 005°16'510.7
2018-Nov-04 05:29N 43°13' E 005°17'6312.8
2018-Nov-04 00:34N 43°03' E 006°42'217.9
2018-Nov-04 00:28N 43°04' E 006°44'717.8
2018-Nov-04 00:03N 43°08' E 006°53'117.2
2018-Nov-04 00:01N 43°09' E 006°54'917.0
2018-Nov-03 23:31N 43°14' E 007°03'816.9
2018-Nov-03 23:03N 43°17' E 007°13'116.8
2018-Nov-03 23:00N 43°17' E 007°14'816.7
2018-Nov-03 22:31N 43°21' E 007°24'3517.3
2018-Nov-03 20:31N 43°39' E 008°05'817.1
2018-Nov-03 20:03N 43°43' E 008°14'117.6
2018-Nov-03 20:00N 43°43' E 008°15'816.8
2018-Nov-03 19:31N 43°48' E 008°24'716.6
2018-Nov-03 19:04N 43°54' E 008°31'116.5
2018-Nov-03 19:01N 43°55' E 008°31'816.1
2018-Nov-03 18:31N 44°01' E 008°38'716.3
2018-Nov-03 18:04N 44°07' E 008°44'116.5
2018-Nov-03 18:00N 44°08' E 008°45'816.5
2018-Nov-03 17:31N 44°14' E 008°52'715.9
2018-Nov-03 17:04N 44°20' E 008°57'115.2
2018-Nov-03 17:01N 44°21' E 008°57'4 7.1
2018-Nov-03 16:28N 44°25' E 008°55'0 0.0
2018-Nov-03 16:03N 44°25' E 008°55'0 0.0
2018-Nov-03 16:00N 44°25' E 008°55'0 0.0
2018-Nov-03 15:27N 44°25' E 008°55'0 0.0
2018-Nov-03 15:03N 44°25' E 008°55'0 0.0
2018-Nov-03 15:00N 44°25' E 008°55'0 0.0
2018-Nov-03 14:30N 44°25' E 008°55'0 0.0
2018-Nov-03 14:02N 44°25' E 008°55'0 0.0
2018-Nov-03 13:59N 44°25' E 008°55'0 0.0
2018-Nov-03 13:26N 44°25' E 008°55'0 0.0
2018-Nov-03 12:59N 44°25' E 008°55'0 0.0
2018-Nov-03 12:29N 44°25' E 008°55'0 0.0
2018-Nov-03 12:02N 44°25' E 008°55'0 0.0
2018-Nov-03 11:59N 44°25' E 008°55'0 0.0
2018-Nov-03 11:28N 44°25' E 008°55'0 0.0
2018-Nov-03 11:01N 44°25' E 008°55'0 0.0
2018-Nov-03 10:58N 44°25' E 008°55'0 0.0
2018-Nov-03 10:29N 44°25' E 008°55'0 0.0
2018-Nov-03 10:02N 44°25' E 008°55'0 0.0
2018-Nov-03 09:59N 44°25' E 008°55'0 0.0
2018-Nov-03 09:29N 44°25' E 008°55'0 0.0
2018-Nov-03 09:02N 44°25' E 008°55'0 0.0
2018-Nov-03 08:59N 44°25' E 008°55'0 0.0
2018-Nov-03 08:28N 44°25' E 008°55'0 0.0
2018-Nov-03 08:01N 44°25' E 008°55'0 0.0
2018-Nov-03 07:58N 44°25' E 008°55'1 1.6
2018-Nov-03 07:30N 44°24' E 008°55'2 4.7
2018-Nov-03 07:03N 44°23' E 008°57'0 7.1
2018-Nov-03 07:00N 44°22' E 008°58'3 6.3
2018-Nov-03 06:30N 44°19' E 008°59'716.0
2018-Nov-03 06:03N 44°13' E 009°05'117.9
2018-Nov-03 06:00N 44°13' E 009°06'917.7
2018-Nov-03 05:30N 44°05' E 009°11'818.1
2018-Nov-03 05:03N 43°58' E 009°17'118.0
2018-Nov-03 05:00N 43°57' E 009°18'918.2
2018-Nov-03 04:30N 43°49' E 009°24'818.1
2018-Nov-03 04:03N 43°42' E 009°30'118.1
2018-Nov-03 04:00N 43°41' E 009°30'917.8
2018-Nov-03 03:30N 43°34' E 009°37'818.1
2018-Nov-03 03:03N 43°27' E 009°42'118.1
2018-Nov-03 03:00N 43°26' E 009°43'918.2
2018-Nov-03 02:30N 43°18' E 009°49'818.0
2018-Nov-03 02:03N 43°11' E 009°55'118.1
2018-Nov-03 02:00N 43°10' E 009°56'917.7
2018-Nov-03 01:30N 43°02' E 009°59'2217.5
2018-Nov-03 00:14N 42°40' E 010°08'618.2
2018-Nov-02 23:55N 42°37' E 010°14'817.6
2018-Nov-02 23:29N 42°32' E 010°22'817.0
2018-Nov-02 23:00N 42°27' E 010°31'17019.5
2018-Nov-02 14:19N 40°48' E 013°35'720.5
2018-Nov-02 13:58N 40°44' E 013°43'1020.0
2018-Nov-02 13:30N 40°39' E 013°54'818.9
2018-Nov-02 13:03N 40°40' E 014°04'118.9
2018-Nov-02 13:00N 40°41' E 014°05'918.9
2018-Nov-02 12:30N 40°47' E 014°14'3 6.9
2018-Nov-02 12:01N 40°50' E 014°16'0 0.0
2018-Nov-02 11:58N 40°50' E 014°16'0 0.0
2018-Nov-02 11:28N 40°50' E 014°16'0 0.0
2018-Nov-02 11:01N 40°50' E 014°16'0 0.0
2018-Nov-02 10:58N 40°50' E 014°16'0 0.0
2018-Nov-02 10:30N 40°50' E 014°16'0 0.0
2018-Nov-02 10:03N 40°50' E 014°16'0 0.0
2018-Nov-02 09:57N 40°50' E 014°16'0 0.0
2018-Nov-02 09:30N 40°50' E 014°16'0 0.0
2018-Nov-02 09:03N 40°50' E 014°16'0 0.0
2018-Nov-02 08:57N 40°50' E 014°16'0 0.0
2018-Nov-02 08:29N 40°50' E 014°16'0 0.0
2018-Nov-02 08:02N 40°50' E 014°16'0 0.0
2018-Nov-02 07:59N 40°50' E 014°16'0 0.0
2018-Nov-02 07:29N 40°50' E 014°16'0 0.0
2018-Nov-02 07:02N 40°50' E 014°16'0 0.0
2018-Nov-02 06:59N 40°50' E 014°16'0 0.0
2018-Nov-02 06:26N 40°50' E 014°16'0 0.0
2018-Nov-02 06:04N 40°50' E 014°16'0 0.0
2018-Nov-02 06:00N 40°50' E 014°16'0 0.0
2018-Nov-02 05:31N 40°50' E 014°16'2 3.5
2018-Nov-02 05:04N 40°49' E 014°17'0 8.6
2018-Nov-02 05:01N 40°49' E 014°17'611.8
2018-Nov-02 04:31N 40°43' E 014°14'511.9
2018-Nov-02 04:04N 40°38' E 014°11'112.5
2018-Nov-02 04:01N 40°38' E 014°11'811.9
2018-Nov-02 03:22N 40°30' E 014°11'414.1
2018-Nov-02 03:03N 40°26' E 014°14'114.2
2018-Nov-02 03:00N 40°26' E 014°14'714.2
2018-Nov-02 02:30N 40°19' E 014°18'714.5
2018-Nov-02 02:03N 40°14' E 014°22'114.6
2018-Nov-02 02:00N 40°13' E 014°23'914.5
2018-Nov-02 01:25N 40°05' E 014°28'8714.9
2018-Nov-01 19:33N 38°48' E 015°22'216.3
2018-Nov-01 19:27N 38°47' E 015°23'716.2
2018-Nov-01 19:02N 38°41' E 015°27'115.8
2018-Nov-01 19:00N 38°40' E 015°27'916.0
2018-Nov-01 18:25N 38°32' E 015°33'616.2
2018-Nov-01 18:03N 38°27' E 015°36'116.1
2018-Nov-01 17:59N 38°26' E 015°37'816.1
2018-Nov-01 17:30N 38°19' E 015°41'512.0
2018-Nov-01 17:03N 38°14' E 015°38'113.3
2018-Nov-01 17:00N 38°14' E 015°37'4 0.4
2018-Nov-01 07:11N 38°12' E 015°33'0 1.0
2018-Nov-01 07:03N 38°12' E 015°34'0 1.6
2018-Nov-01 07:00N 38°12' E 015°34'3 5.8
2018-Nov-01 06:30N 38°10' E 015°36'510.9
2018-Nov-01 06:03N 38°05' E 015°35'1 9.6
2018-Nov-01 05:59N 38°04' E 015°35'510.4
2018-Nov-01 05:30N 37°59' E 015°35'711.4
2018-Nov-01 04:51N 37°52' E 015°34'711.4
2018-Nov-01 04:14N 37°45' E 015°34'311.5
2018-Nov-01 04:01N 37°42' E 015°33'011.6
2018-Nov-01 04:00N 37°42' E 015°33'711.8
2018-Nov-01 03:27N 37°36' E 015°33'  
2018-Oct-29 15:27N 39°05' E 002°59'717.9
2018-Oct-29 15:03N 39°08' E 002°50'118.3
2018-Oct-29 14:59N 39°09' E 002°49'919.0
2018-Oct-29 14:30N 39°17' E 002°43'919.2
2018-Oct-29 14:00N 39°26' E 002°39'714.0
2018-Oct-29 13:30N 39°33' E 002°38'0 0.1
2018-Oct-29 13:00N 39°33' E 002°38'0 0.0
2018-Oct-29 12:30N 39°33' E 002°38'0 0.0
2018-Oct-29 12:03N 39°33' E 002°38'0 0.0
2018-Oct-29 12:00N 39°33' E 002°38'0 0.0
2018-Oct-29 11:30N 39°33' E 002°38'0 0.0
2018-Oct-29 11:02N 39°33' E 002°38'0 0.0
2018-Oct-29 10:59N 39°33' E 002°38'0 0.0
2018-Oct-29 10:29N 39°33' E 002°38'0 0.0
2018-Oct-29 10:02N 39°33' E 002°38'0 0.0
2018-Oct-29 09:59N 39°33' E 002°38'0 0.0
2018-Oct-29 09:29N 39°33' E 002°38'0 0.0
2018-Oct-29 09:02N 39°33' E 002°38'0 0.0
2018-Oct-29 08:56N 39°33' E 002°38'0 0.0
2018-Oct-29 08:28N 39°33' E 002°38'0 0.2
2018-Oct-29 08:03N 39°33' E 002°38'0 1.6
2018-Oct-29 08:00N 39°33' E 002°38'3 6.6
2018-Oct-29 07:30N 39°30' E 002°37'614.0
2018-Oct-29 07:03N 39°26' E 002°31'115.3
2018-Oct-29 07:00N 39°26' E 002°30'4313.9
2018-Oct-29 03:53N 40°09' E 002°29'817.8
2018-Oct-29 03:26N 40°17' E 002°32'21217.9
2018-Oct-28 15:35N 43°14' E 005°09'218.8
2018-Oct-28 15:29N 43°15' E 005°11'817.6
2018-Oct-28 15:03N 43°20' E 005°18'0 7.6
2018-Oct-28 15:00N 43°21' E 005°18'1 0.1
2018-Oct-28 06:26N 43°21' E 005°20'3 8.8
2018-Oct-28 06:03N 43°19' E 005°16'0 7.8
2018-Oct-28 05:59N 43°18' E 005°16'612.7
2018-Oct-28 05:30N 43°12' E 005°17'6312.3
2018-Oct-28 00:22N 43°04' E 006°43'413.2
2018-Oct-28 00:03N 43°06' E 006°48'113.4
2018-Oct-28 00:00N 43°06' E 006°49'713.6
2018-Oct-27 23:30N 43°10' E 006°57'613.3
2018-Oct-27 23:03N 43°13' E 007°04'113.3
2018-Oct-27 23:00N 43°13' E 007°05'713.5
2018-Oct-27 22:30N 43°16' E 007°13'614.1
2018-Oct-27 22:03N 43°20' E 007°20'114.8
2018-Oct-27 22:00N 43°20' E 007°21'714.7
2018-Oct-27 21:31N 43°24' E 007°30'614.3
2018-Oct-27 21:04N 43°27' E 007°37'114.2
2018-Oct-27 21:01N 43°27' E 007°38'816.4
2018-Oct-27 20:31N 43°31' E 007°48'817.5
2018-Oct-27 20:03N 43°35' E 007°57'116.8
2018-Oct-27 20:00N 43°36' E 007°58'917.5
2018-Oct-27 19:30N 43°40' E 008°09'917.5
2018-Oct-27 18:58N 43°46' E 008°20'817.4
2018-Oct-27 18:31N 43°52' E 008°27'817.0
2018-Oct-27 18:03N 43°58' E 008°34'116.9
2018-Oct-27 18:01N 43°58' E 008°34'816.7
2018-Oct-27 17:31N 44°05' E 008°41'716.4
2018-Oct-27 17:03N 44°11' E 008°48'116.2
2018-Oct-27 17:01N 44°11' E 008°48'816.3
2018-Oct-27 16:31N 44°18' E 008°55'612.7
2018-Oct-27 16:03N 44°24' E 008°56'0 9.5
2018-Oct-27 16:01N 44°24' E 008°55'1 1.9
2018-Oct-27 15:29N 44°25' E 008°55'0 0.0
2018-Oct-27 14:59N 44°25' E 008°55'0 0.0
2018-Oct-27 14:02N 44°25' E 008°55'0 0.0
2018-Oct-27 13:59N 44°25' E 008°55'0 0.0
2018-Oct-27 13:28N 44°25' E 008°55'0 0.0
2018-Oct-27 12:58N 44°25' E 008°55'0 0.0
2018-Oct-27 12:28N 44°25' E 008°55'0 0.0
2018-Oct-27 12:01N 44°25' E 008°55'0 0.0
2018-Oct-27 11:58N 44°25' E 008°55'0 0.0
2018-Oct-27 11:28N 44°25' E 008°55'0 0.0
2018-Oct-27 11:03N 44°25' E 008°55'0 0.0
2018-Oct-27 11:00N 44°25' E 008°55'  

Dump ship's entire track history